createdAt,value
2018-07-20T00:01:57.198Z,100111.60
2018-07-20T00:04:24.079Z,100110.23
2018-07-20T00:06:50.960Z,100103.19
2018-07-20T00:09:17.859Z,100104.39
2018-07-20T00:11:44.736Z,100101.30
2018-07-20T00:14:11.602Z,100100.17
2018-07-20T00:16:38.492Z,100104.06
2018-07-20T00:19:05.315Z,100104.06
2018-07-20T00:21:32.260Z,100103.16
2018-07-20T00:23:59.118Z,100098.66
2018-07-20T00:26:26.032Z,100096.42
2018-07-20T00:28:52.943Z,100095.24
2018-07-20T00:31:19.818Z,100095.42
2018-07-20T00:33:46.655Z,100090.30
2018-07-20T00:36:13.502Z,100089.98
2018-07-20T00:38:40.350Z,100088.58
2018-07-20T00:41:07.367Z,100083.72
2018-07-20T00:43:34.384Z,100073.03
2018-07-20T00:46:01.291Z,100069.67
2018-07-20T00:48:28.184Z,100070.45
2018-07-20T00:50:55.103Z,100066.25
2018-07-20T00:53:22.028Z,100067.73
2018-07-20T00:55:48.983Z,100065.03
2018-07-20T00:58:15.859Z,100059.66
2018-07-20T01:00:42.742Z,100054.42
2018-07-20T01:03:09.591Z,100061.33
2018-07-20T01:05:36.444Z,100059.55
2018-07-20T01:08:03.440Z,100057.28
2018-07-20T01:10:30.323Z,100052.72
2018-07-20T01:15:03.879Z,100051.67
2018-07-20T01:17:30.759Z,100052.85
2018-07-20T01:19:57.661Z,100053.92
2018-07-20T01:22:24.523Z,100053.48
2018-07-20T01:24:52.472Z,100054.58
2018-07-20T01:27:19.314Z,100051.66
2018-07-20T01:29:46.251Z,100046.76
2018-07-20T01:32:19.373Z,100047.26
2018-07-20T01:34:46.272Z,100048.31
2018-07-20T01:37:13.147Z,100046.23
2018-07-20T01:39:40.071Z,100053.13
2018-07-20T01:42:07.188Z,100044.80
2018-07-20T01:44:34.058Z,100042.64
2018-07-20T01:47:00.906Z,100049.25
2018-07-20T01:49:27.799Z,100050.73
2018-07-20T01:51:54.660Z,100053.04
2018-07-20T01:54:21.522Z,100053.16
2018-07-20T01:56:48.411Z,100046.75
2018-07-20T01:59:15.327Z,100052.66
2018-07-20T02:01:42.195Z,100043.67
2018-07-20T02:04:10.083Z,100046.51
2018-07-20T02:06:36.988Z,100045.56
2018-07-20T02:09:06.831Z,100049.41
2018-07-20T02:11:33.724Z,100050.02
2018-07-20T02:14:00.595Z,100050.70
2018-07-20T02:16:27.551Z,100049.83
2018-07-20T02:18:54.424Z,100054.63
2018-07-20T02:21:21.278Z,100051.70
2018-07-20T02:23:48.144Z,100045.95
2018-07-20T02:26:15.052Z,100044.80
2018-07-20T02:28:41.909Z,100045.42
2018-07-20T02:31:08.822Z,100049.23
2018-07-20T02:33:35.859Z,100045.84
2018-07-20T02:36:02.824Z,100041.33
2018-07-20T02:38:29.711Z,100044.69
2018-07-20T02:40:56.592Z,100049.01
2018-07-20T02:43:24.518Z,100045.45
2018-07-20T02:45:51.387Z,100047.75
2018-07-20T02:48:18.250Z,100047.13
2018-07-20T02:50:45.124Z,100046.32
2018-07-20T02:53:12.628Z,100038.52
2018-07-20T02:55:39.480Z,100046.91
2018-07-20T02:58:06.431Z,100041.64
2018-07-20T03:00:33.354Z,100045.32
2018-07-20T03:03:00.811Z,100038.45
2018-07-20T03:05:27.676Z,100036.16
2018-07-20T03:07:54.547Z,100037.08
2018-07-20T03:10:22.262Z,100032.28
2018-07-20T03:12:49.128Z,100034.72
2018-07-20T03:15:16.011Z,100034.45
2018-07-20T03:17:42.884Z,100031.25
2018-07-20T03:20:09.763Z,100030.73
2018-07-20T03:22:37.639Z,100036.04
2018-07-20T03:25:04.523Z,100033.79
2018-07-20T03:27:31.395Z,100039.34
2018-07-20T03:29:58.251Z,100040.51
2018-07-20T03:32:25.603Z,100040.09
2018-07-20T03:34:53.207Z,100039.60
2018-07-20T03:37:20.092Z,100035.64
2018-07-20T03:39:47.571Z,100036.04
2018-07-20T03:42:14.466Z,100036.39
2018-07-20T03:44:41.359Z,100029.23
2018-07-20T03:47:08.239Z,100032.33
2018-07-20T03:49:35.261Z,100030.52
2018-07-20T03:52:02.122Z,100024.14
2018-07-20T03:54:28.987Z,100026.53
2018-07-20T03:56:55.866Z,100025.42
2018-07-20T03:59:23.732Z,100022.19
2018-07-20T04:01:50.620Z,100020.63
2018-07-20T04:04:17.484Z,100020.99
2018-07-20T04:06:44.347Z,100019.30
2018-07-20T04:09:11.414Z,100016.84
2018-07-20T04:11:38.418Z,100015.81
2018-07-20T04:14:05.327Z,100018.30
2018-07-20T04:16:32.196Z,100012.75
2018-07-20T04:18:59.076Z,100014.90
2018-07-20T04:21:26.029Z,100012.86
2018-07-20T04:23:52.890Z,100009.82
2018-07-20T04:26:19.760Z,100009.08
2018-07-20T04:28:49.646Z,100007.31
2018-07-20T04:31:16.612Z,100001.77
2018-07-20T04:33:43.499Z,100004.25
2018-07-20T04:36:10.375Z,100005.50
2018-07-20T04:38:37.230Z,100001.06
2018-07-20T04:41:04.091Z,100008.65
2018-07-20T04:43:30.955Z,100011.00
2018-07-20T04:45:58.824Z,100015.04
2018-07-20T04:48:25.687Z,100013.95
2018-07-20T04:50:52.579Z,100020.41
2018-07-20T04:53:19.463Z,100014.89
2018-07-20T04:55:46.355Z,100015.08
2018-07-20T04:58:13.231Z,100022.02
2018-07-20T05:00:40.099Z,100024.85
2018-07-20T05:03:07.023Z,100034.16
2018-07-20T05:05:33.882Z,100029.66
2018-07-20T05:08:00.754Z,100025.75
2018-07-20T05:10:27.626Z,100022.76
2018-07-20T05:12:54.524Z,100026.09
2018-07-20T05:15:21.471Z,100020.79
2018-07-20T05:17:48.368Z,100016.77
2018-07-20T05:20:15.257Z,100015.05
2018-07-20T05:22:42.127Z,100008.77
2018-07-20T05:25:08.980Z,100006.95
2018-07-20T05:27:35.839Z,100006.34
2018-07-20T05:30:02.759Z,100007.03
2018-07-20T05:32:29.631Z,99999.97
2018-07-20T05:34:56.500Z,100004.09
2018-07-20T05:37:23.421Z,100000.91
2018-07-20T05:39:50.270Z,99995.63
2018-07-20T05:42:17.127Z,99993.92
2018-07-20T05:44:44.009Z,100004.66
2018-07-20T05:47:11.135Z,99995.09
2018-07-20T05:49:38.008Z,99994.49
2018-07-20T05:52:04.935Z,99996.00
2018-07-20T05:54:31.843Z,99989.73
2018-07-20T05:56:58.738Z,99990.98
2018-07-20T05:59:25.602Z,99983.20
2018-07-20T06:01:52.475Z,99982.36
2018-07-20T06:04:19.351Z,99973.08
2018-07-20T06:06:46.252Z,99988.94
2018-07-20T06:09:13.111Z,99984.70
2018-07-20T06:11:40.196Z,99984.94
2018-07-20T06:14:07.702Z,99993.17
2018-07-20T06:16:34.522Z,99976.14
2018-07-20T06:19:01.596Z,99979.33
2018-07-20T06:21:28.460Z,99979.72
2018-07-20T06:23:55.375Z,99979.75
2018-07-20T06:26:22.283Z,99978.70
2018-07-20T06:28:49.167Z,99981.81
2018-07-20T06:31:16.132Z,99981.98
2018-07-20T06:33:43.015Z,99985.02
2018-07-20T06:36:09.917Z,99980.80
2018-07-20T06:38:36.783Z,99989.37
2018-07-20T06:41:03.651Z,99980.54
2018-07-20T06:43:30.771Z,99977.77
2018-07-20T06:45:58.014Z,99980.67
2018-07-20T06:48:24.924Z,99991.31
2018-07-20T06:50:51.803Z,99988.27
2018-07-20T06:53:18.660Z,99985.82
2018-07-20T06:55:45.573Z,99983.03
2018-07-20T06:58:12.406Z,99986.17
2018-07-20T07:00:39.297Z,99981.62
2018-07-20T07:03:06.183Z,99992.34
2018-07-20T07:05:33.045Z,99990.29
2018-07-20T07:07:59.958Z,99996.33
2018-07-20T07:10:26.856Z,99993.91
2018-07-20T07:12:53.728Z,99991.16
2018-07-20T07:15:21.451Z,99991.69
2018-07-20T07:17:48.311Z,99996.28
2018-07-20T07:20:15.171Z,99990.81
2018-07-20T07:22:42.054Z,99983.92
2018-07-20T07:25:08.954Z,99989.56
2018-07-20T07:27:35.851Z,99988.16
2018-07-20T07:30:02.752Z,100000.97
2018-07-20T07:32:29.624Z,99988.74
2018-07-20T07:34:56.540Z,100000.76
2018-07-20T07:37:24.423Z,99993.61
2018-07-20T07:39:51.295Z,99990.41
2018-07-20T07:42:18.224Z,99986.81
2018-07-20T07:44:45.081Z,99988.52
2018-07-20T07:47:12.003Z,99987.14
2018-07-20T07:49:38.978Z,99982.88
2018-07-20T07:52:06.107Z,99987.19
2018-07-20T07:54:32.983Z,99976.83
2018-07-20T07:56:59.871Z,99983.83
2018-07-20T07:59:26.815Z,99985.24
2018-07-20T08:01:53.709Z,99987.14
2018-07-20T08:04:20.616Z,99986.52
2018-07-20T08:06:47.514Z,99989.00
2018-07-20T08:09:14.467Z,99987.30
2018-07-20T08:11:42.327Z,99999.33
2018-07-20T08:14:10.449Z,99992.67
2018-07-20T08:16:37.306Z,99990.11
2018-07-20T08:19:04.454Z,99986.23
2018-07-20T08:21:31.339Z,99987.68
2018-07-20T08:23:58.211Z,99982.14
2018-07-20T08:26:25.123Z,99973.61
2018-07-20T08:28:51.996Z,99970.53
2018-07-20T08:31:18.869Z,99976.33
2018-07-20T08:33:45.769Z,99972.38
2018-07-20T08:36:12.631Z,99971.25
2018-07-20T08:38:39.520Z,99972.61
2018-07-20T08:41:06.479Z,99968.23
2018-07-20T08:43:33.300Z,99979.37
2018-07-20T08:46:00.248Z,99961.07
2018-07-20T08:48:27.138Z,99967.52
2018-07-20T08:50:54.021Z,99968.45
2018-07-20T08:53:20.911Z,99969.16
2018-07-20T08:55:47.824Z,99956.56
2018-07-20T08:58:14.754Z,99960.91
2018-07-20T09:00:42.543Z,99957.41
2018-07-20T09:03:09.411Z,99962.76
2018-07-20T09:05:36.364Z,99966.25
2018-07-20T09:08:03.256Z,99965.75
2018-07-20T09:10:30.135Z,99961.45
2018-07-20T09:12:57.031Z,99970.06
2018-07-20T09:15:23.912Z,99961.20
2018-07-20T09:17:50.814Z,99953.52
2018-07-20T09:20:17.747Z,99965.45
2018-07-20T09:22:44.623Z,99957.36
2018-07-20T09:25:11.495Z,99952.23
2018-07-20T09:27:41.392Z,99956.39
2018-07-20T09:30:08.288Z,99951.51
2018-07-20T09:32:35.148Z,99963.10
2018-07-20T09:35:02.035Z,99959.85
2018-07-20T09:37:28.899Z,99953.00
2018-07-20T09:39:55.763Z,99950.83
2018-07-20T09:42:22.624Z,99952.78
2018-07-20T09:44:49.524Z,99947.37
2018-07-20T09:47:16.402Z,99941.95
2018-07-20T09:49:43.331Z,99945.23
2018-07-20T09:52:10.311Z,99941.06
2018-07-20T09:54:37.177Z,99941.63
2018-07-20T09:57:07.136Z,99939.40
2018-07-20T09:59:34.064Z,99934.61
2018-07-20T10:02:00.908Z,99935.02
2018-07-20T10:04:27.832Z,99936.42
2018-07-20T10:06:54.675Z,99939.45
2018-07-20T10:09:21.541Z,99929.90
2018-07-20T10:11:48.407Z,99936.66
2018-07-20T10:14:15.302Z,99929.20
2018-07-20T10:16:42.163Z,99925.00
2018-07-20T10:19:13.217Z,99920.78
2018-07-20T10:21:39.992Z,99920.89
2018-07-20T10:24:06.859Z,99916.11
2018-07-20T10:26:33.763Z,99917.84
2018-07-20T10:29:00.849Z,99915.65
2018-07-20T10:31:27.775Z,99906.70
2018-07-20T10:33:55.646Z,99902.27
2018-07-20T10:36:22.531Z,99897.17
2018-07-20T10:38:49.415Z,99897.48
2018-07-20T10:41:16.279Z,99889.59
2018-07-20T10:43:43.163Z,99885.03
2018-07-20T10:46:10.067Z,99890.11
2018-07-20T10:48:37.022Z,99900.88
2018-07-20T10:51:03.897Z,99891.20
2018-07-20T10:53:30.763Z,99878.95
2018-07-20T10:56:01.444Z,99885.92
2018-07-20T10:58:29.115Z,99880.08
2018-07-20T11:00:56.037Z,99871.05
2018-07-20T11:03:22.946Z,99875.73
2018-07-20T11:05:49.823Z,99872.54
2018-07-20T11:08:16.780Z,99863.73
2018-07-20T11:10:43.643Z,99859.97
2018-07-20T11:13:10.551Z,99866.69
2018-07-20T11:15:37.482Z,99860.50
2018-07-20T11:18:04.483Z,99855.67
2018-07-20T11:20:31.393Z,99851.54
2018-07-20T11:22:58.278Z,99852.32
2018-07-20T11:25:25.139Z,99858.67
2018-07-20T11:27:52.034Z,99848.66
2018-07-20T11:30:18.927Z,99851.09
2018-07-20T11:32:45.793Z,99841.32
2018-07-20T11:35:12.683Z,99837.92
2018-07-20T11:37:39.562Z,99832.55
2018-07-20T11:40:06.408Z,99833.27
2018-07-20T11:42:33.281Z,99831.34
2018-07-20T11:45:00.228Z,99828.86
2018-07-20T11:47:27.103Z,99835.66
2018-07-20T11:49:53.968Z,99827.80
2018-07-20T11:52:20.878Z,99826.35
2018-07-20T11:54:47.807Z,99831.09
2018-07-20T11:57:14.654Z,99813.82
2018-07-20T11:59:41.523Z,99822.05
2018-07-20T12:02:08.391Z,99815.64
2018-07-20T12:04:35.261Z,99810.83
2018-07-20T12:07:02.468Z,99810.73
2018-07-20T12:09:29.320Z,99803.16
2018-07-20T12:11:56.183Z,99804.11
2018-07-20T12:14:24.103Z,99798.46
2018-07-20T12:16:50.995Z,99792.67
2018-07-20T12:19:17.880Z,99792.51
2018-07-20T12:21:44.779Z,99790.92
2018-07-20T12:24:11.675Z,99788.75
2018-07-20T12:26:38.550Z,99790.84
2018-07-20T12:29:05.415Z,99787.66
2018-07-20T12:31:32.304Z,99787.81
2018-07-20T12:33:59.186Z,99780.68
2018-07-20T12:36:26.033Z,99773.02
2018-07-20T12:38:52.935Z,99771.71
2018-07-20T12:41:19.875Z,99770.88
2018-07-20T12:43:46.675Z,99769.88
2018-07-20T12:46:13.583Z,99779.90
2018-07-20T12:48:40.470Z,99767.95
2018-07-20T12:51:07.443Z,99764.60
2018-07-20T12:53:34.380Z,99765.19
2018-07-20T12:56:01.292Z,99765.91
2018-07-20T12:58:28.190Z,99769.12
2018-07-20T13:00:55.072Z,99762.56
2018-07-20T13:03:22.044Z,99761.64
2018-07-20T13:05:48.935Z,99765.95
2018-07-20T13:08:15.758Z,99761.88
2018-07-20T13:10:42.643Z,99753.00
2018-07-20T13:13:09.490Z,99744.98
2018-07-20T13:15:36.379Z,99746.25
2018-07-20T13:18:03.351Z,99750.70
2018-07-20T13:20:30.158Z,99752.88
2018-07-20T13:23:00.030Z,99750.09
2018-07-20T13:25:26.965Z,99757.58
2018-07-20T13:27:53.824Z,99744.29
2018-07-20T13:30:21.343Z,99746.66
2018-07-20T13:32:48.225Z,99747.23
2018-07-20T13:35:15.123Z,99744.31
2018-07-20T13:37:41.979Z,99739.66
2018-07-20T13:40:08.830Z,99740.83
2018-07-20T13:42:35.716Z,99746.45
2018-07-20T13:45:02.666Z,99753.22
2018-07-20T13:47:29.546Z,99740.42
2018-07-20T13:49:56.408Z,99745.10
2018-07-20T13:52:23.343Z,99746.14
2018-07-20T13:54:50.545Z,99744.87
2018-07-20T13:57:17.400Z,99746.35
2018-07-20T13:59:44.282Z,99733.16
2018-07-20T14:02:11.206Z,99744.94
2018-07-20T14:04:38.113Z,99740.95
2018-07-20T14:07:05.003Z,99734.87
2018-07-20T14:09:31.879Z,99730.10
2018-07-20T14:11:59.044Z,99722.33
2018-07-20T14:14:26.084Z,99721.02
2018-07-20T14:16:53.087Z,99717.54
2018-07-20T14:19:20.292Z,99706.03
2018-07-20T14:21:47.455Z,99702.48
2018-07-20T14:24:14.462Z,99712.30
2018-07-20T14:26:41.487Z,99706.89
2018-07-20T14:29:08.519Z,99713.50
2018-07-20T14:31:35.638Z,99719.28
2018-07-20T14:34:02.531Z,99703.40
2018-07-20T14:36:29.564Z,99702.02
2018-07-20T14:38:56.672Z,99710.86
2018-07-20T14:41:23.859Z,99712.61
2018-07-20T14:43:50.887Z,99707.05
2018-07-20T14:46:17.887Z,99713.27
2018-07-20T14:48:44.911Z,99708.91
2018-07-20T14:51:11.979Z,99697.38
2018-07-20T14:53:38.974Z,99699.41
2018-07-20T14:56:06.667Z,99695.03
2018-07-20T14:58:34.571Z,99695.28
2018-07-20T15:01:01.590Z,99680.47
2018-07-20T15:03:28.652Z,99677.73
2018-07-20T15:05:55.689Z,99674.14
2018-07-20T15:08:22.699Z,99676.41
2018-07-20T15:10:49.688Z,99673.70
2018-07-20T15:13:16.727Z,99660.28
2018-07-20T15:15:43.741Z,99667.28
2018-07-20T15:18:10.751Z,99654.05
2018-07-20T15:20:37.746Z,99658.03
2018-07-20T15:23:04.975Z,99656.11
2018-07-20T15:25:31.976Z,99652.76
2018-07-20T15:27:58.977Z,99655.91
2018-07-20T15:30:26.036Z,99654.97
2018-07-20T15:32:53.067Z,99648.42
2018-07-20T15:35:20.057Z,99641.30
2018-07-20T15:37:47.139Z,99636.33
2018-07-20T15:40:14.175Z,99641.53
2018-07-20T15:42:41.183Z,99641.27
2018-07-20T15:45:08.267Z,99635.72
2018-07-20T15:47:36.094Z,99638.52
2018-07-20T15:50:03.498Z,99640.14
2018-07-20T15:54:57.716Z,99644.22
2018-07-20T15:57:25.714Z,99640.16
2018-07-20T15:59:52.835Z,99627.51
2018-07-20T16:02:20.390Z,99626.81
2018-07-20T16:04:47.412Z,99619.73
2018-07-20T16:07:15.439Z,99618.82
2018-07-20T16:09:42.467Z,99621.41
2018-07-20T16:12:09.759Z,99612.97
2018-07-20T16:14:36.767Z,99608.84
2018-07-20T16:17:03.801Z,99613.52
2018-07-20T16:19:30.809Z,99611.32
2018-07-20T16:21:57.816Z,99614.20
2018-07-20T16:24:24.827Z,99613.23
2018-07-20T16:26:51.847Z,99606.10
2018-07-20T16:29:18.847Z,99599.00
2018-07-20T16:31:45.877Z,99591.67
2018-07-20T16:34:12.887Z,99580.72
2018-07-20T16:36:39.943Z,99590.17
2018-07-20T16:39:07.889Z,99583.88
2018-07-20T16:41:34.887Z,99585.03
2018-07-20T16:44:01.906Z,99586.09
2018-07-20T16:46:28.918Z,99598.86
2018-07-20T16:48:55.921Z,99587.81
2018-07-20T16:51:22.935Z,99585.12
2018-07-20T16:53:49.952Z,99589.25
2018-07-20T16:56:17.006Z,99592.25
2018-07-20T16:58:44.098Z,99592.41
2018-07-20T17:01:11.082Z,99594.12
2018-07-20T17:03:38.127Z,99590.97
2018-07-20T17:06:05.182Z,99592.35
2018-07-20T17:08:32.209Z,99586.42
2018-07-20T17:10:59.223Z,99587.66
2018-07-20T17:13:26.282Z,99588.94
2018-07-20T17:15:53.462Z,99599.16
2018-07-20T17:18:20.468Z,99601.86
2018-07-20T17:20:47.504Z,99605.12
2018-07-20T17:23:15.536Z,99608.00
2018-07-20T17:25:42.583Z,99599.77
2018-07-20T17:28:09.621Z,99605.19
2018-07-20T17:30:36.568Z,99614.56
2018-07-20T17:33:04.551Z,99618.68
2018-07-20T17:35:31.552Z,99612.53
2018-07-20T17:37:58.543Z,99615.65
2018-07-20T17:40:25.542Z,99621.20
2018-07-20T17:42:52.547Z,99619.14
2018-07-20T17:45:19.564Z,99615.80
2018-07-20T17:47:46.608Z,99622.50
2018-07-20T17:50:13.719Z,99620.02
2018-07-20T17:52:40.785Z,99624.30
2018-07-20T17:55:08.672Z,99619.26
2018-07-20T17:57:35.847Z,99620.91
2018-07-20T18:00:03.177Z,99626.26
2018-07-20T18:02:30.177Z,99616.45
2018-07-20T18:04:57.244Z,99618.94
2018-07-20T18:07:24.386Z,99616.06
2018-07-20T18:09:51.382Z,99622.22
2018-07-20T18:12:18.416Z,99626.91
2018-07-20T18:14:45.415Z,99625.09
2018-07-20T18:17:12.479Z,99632.02
2018-07-20T18:19:39.480Z,99635.53
2018-07-20T18:22:06.487Z,99642.89
2018-07-20T18:24:33.521Z,99639.00
2018-07-20T18:27:00.562Z,99636.95
2018-07-20T18:29:28.303Z,99635.43
2018-07-20T18:31:55.296Z,99634.28
2018-07-20T18:34:22.291Z,99627.33
2018-07-20T18:36:51.774Z,99629.52
2018-07-20T18:39:18.867Z,99630.21
2018-07-20T18:41:45.859Z,99629.64
2018-07-20T18:44:12.935Z,99628.50
2018-07-20T18:46:39.995Z,99623.14
2018-07-20T18:49:06.988Z,99624.84
2018-07-20T18:51:34.251Z,99619.31
2018-07-20T18:54:01.247Z,99620.20
2018-07-20T18:56:28.256Z,99615.50
2018-07-20T18:58:55.234Z,99615.84
2018-07-20T19:01:22.247Z,99611.66
2018-07-20T19:03:49.231Z,99608.69
2018-07-20T19:06:16.228Z,99609.09
2018-07-20T19:08:43.314Z,99612.12
2018-07-20T19:11:11.172Z,99613.56
2018-07-20T19:13:38.196Z,99609.05
2018-07-20T19:16:05.306Z,99606.94
2018-07-20T19:18:36.134Z,99614.03
2018-07-20T19:21:03.146Z,99611.97
2018-07-20T19:23:30.255Z,99611.20
2018-07-20T19:25:57.343Z,99611.77
2018-07-20T19:28:24.440Z,99619.55
2018-07-20T19:30:51.467Z,99621.17
2018-07-20T19:33:18.503Z,99621.98
2018-07-20T19:35:45.533Z,99632.66
2018-07-20T19:38:12.572Z,99637.71
2018-07-20T19:40:39.653Z,99637.92
2018-07-20T19:43:06.676Z,99638.51
2018-07-20T19:45:33.669Z,99639.52
2018-07-20T19:48:00.688Z,99647.26
2018-07-20T19:50:27.735Z,99646.38
2018-07-20T19:52:54.747Z,99650.34
2018-07-20T19:55:21.790Z,99654.59
2018-07-20T19:57:48.838Z,99655.61
2018-07-20T20:00:15.836Z,99653.47
2018-07-20T20:02:43.615Z,99658.27
2018-07-20T20:05:10.503Z,99658.73
2018-07-20T20:07:37.487Z,99662.69
2018-07-20T20:10:04.924Z,99668.48
2018-07-20T20:12:31.983Z,99669.49
2018-07-20T20:14:59.056Z,99664.86
2018-07-20T20:17:26.061Z,99664.38
2018-07-20T20:19:53.264Z,99673.16
2018-07-20T20:22:20.251Z,99677.79
2018-07-20T20:24:47.259Z,99678.23
2018-07-20T20:27:14.270Z,99671.56
2018-07-20T20:29:41.271Z,99669.39
2018-07-20T20:32:08.283Z,99671.27
2018-07-20T20:34:36.211Z,99665.95
2018-07-20T20:37:03.225Z,99652.65
2018-07-20T20:39:30.249Z,99660.39
2018-07-20T20:41:57.215Z,99653.50
2018-07-20T20:44:24.399Z,99651.17
2018-07-20T20:46:51.398Z,99653.56
2018-07-20T20:49:18.379Z,99642.41
2018-07-20T20:51:45.376Z,99648.26
2018-07-20T20:54:12.363Z,99655.58
2018-07-20T20:56:39.362Z,99658.65
2018-07-20T20:59:09.725Z,99653.77
2018-07-20T21:01:36.776Z,99651.30
2018-07-20T21:04:03.772Z,99660.31
2018-07-20T21:06:30.752Z,99659.69
2018-07-20T21:08:57.719Z,99653.82
2018-07-20T21:11:24.704Z,99650.24
2018-07-20T21:13:51.695Z,99646.25
2018-07-20T21:16:18.746Z,99644.30
2018-07-20T21:18:45.817Z,99646.42
2018-07-20T21:21:12.824Z,99643.50
2018-07-20T21:23:39.827Z,99646.60
2018-07-20T21:26:06.871Z,99650.98
2018-07-20T21:28:33.871Z,99650.18
2018-07-20T21:31:00.852Z,99647.20
2018-07-20T21:33:28.847Z,99655.05
2018-07-20T21:35:55.831Z,99655.80
2018-07-20T21:38:22.859Z,99655.70
2018-07-20T21:40:49.887Z,99662.55
2018-07-20T21:43:16.975Z,99662.34
2018-07-20T21:45:44.871Z,99660.70
2018-07-20T21:48:11.862Z,99660.84
2018-07-20T21:50:38.832Z,99660.81
2018-07-20T21:53:05.935Z,99668.60
2018-07-20T21:55:32.974Z,99669.41
2018-07-20T21:57:59.961Z,99672.06
2018-07-20T22:00:26.915Z,99671.84
2018-07-20T22:02:53.855Z,99679.25
2018-07-20T22:05:20.819Z,99679.91
2018-07-20T22:07:47.841Z,99678.38
2018-07-20T22:10:14.798Z,99682.32
2018-07-20T22:12:41.769Z,99682.81
2018-07-20T22:15:09.111Z,99687.07
2018-07-20T22:17:36.149Z,99687.91
2018-07-20T22:20:04.084Z,99690.63
2018-07-20T22:22:31.219Z,99688.15
2018-07-20T22:24:58.207Z,99689.26
2018-07-20T22:27:25.200Z,99689.30
2018-07-20T22:29:52.196Z,99688.70
2018-07-20T22:32:19.087Z,99695.33
2018-07-20T22:34:46.022Z,99690.30
2018-07-20T22:37:12.974Z,99691.83
2018-07-20T22:39:39.931Z,99689.82
2018-07-20T22:42:06.904Z,99689.17
2018-07-20T22:44:33.879Z,99674.31
2018-07-20T22:47:00.817Z,99677.41
2018-07-20T22:49:27.768Z,99680.45
2018-07-20T22:51:54.720Z,99668.57
2018-07-20T22:54:21.676Z,99673.95
2018-07-20T22:56:48.655Z,99675.68
2018-07-20T22:59:15.600Z,99673.16
2018-07-20T23:01:42.554Z,99670.77
2018-07-20T23:04:09.544Z,99672.30
2018-07-20T23:06:36.544Z,99679.37
2018-07-20T23:09:06.747Z,99672.14
2018-07-20T23:11:33.734Z,99672.44
2018-07-20T23:14:00.679Z,99664.63
2018-07-20T23:16:27.659Z,99662.45
2018-07-20T23:18:54.664Z,99664.11
2018-07-20T23:21:21.609Z,99664.84
2018-07-20T23:23:48.543Z,99661.30
2018-07-20T23:26:15.475Z,99667.26
2018-07-20T23:28:42.476Z,99665.46
2018-07-20T23:31:09.408Z,99663.61
2018-07-20T23:33:36.395Z,99666.02
2018-07-20T23:36:03.355Z,99668.67
2018-07-20T23:38:30.535Z,99667.66
2018-07-20T23:40:57.481Z,99664.84
2018-07-20T23:43:24.415Z,99668.06
2018-07-20T23:45:51.375Z,99667.13
2018-07-20T23:48:18.326Z,99665.80
2018-07-20T23:50:45.289Z,99673.43
2018-07-20T23:53:12.223Z,99669.28
2018-07-20T23:55:39.172Z,99667.50
2018-07-20T23:58:06.161Z,99670.95
